createdAt,value
2019-01-03T00:01:54.194Z,-2.21
2019-01-03T00:07:25.661Z,-2.29
2019-01-03T00:12:50.401Z,-2.21
2019-01-03T00:18:18.540Z,-2.10
2019-01-03T00:23:43.937Z,-2.25
2019-01-03T00:29:08.045Z,-2.20
2019-01-03T00:34:48.589Z,-2.21
2019-01-03T00:40:12.937Z,-2.38
2019-01-03T00:45:36.193Z,-2.65
2019-01-03T00:51:01.394Z,-2.58
2019-01-03T00:56:25.493Z,-2.60
2019-01-03T01:01:45.465Z,-2.46
2019-01-03T01:07:10.724Z,-2.41
2019-01-03T01:12:38.811Z,-2.51
2019-01-03T01:18:16.476Z,-2.56
2019-01-03T01:23:56.832Z,-2.55
2019-01-03T01:29:30.397Z,-2.43
2019-01-03T01:34:58.645Z,-2.41
2019-01-03T01:40:30.054Z,-2.41
2019-01-03T01:45:54.316Z,-2.54
2019-01-03T01:51:20.141Z,-2.52
2019-01-03T01:56:48.061Z,-2.46
2019-01-03T02:02:12.116Z,-2.57
2019-01-03T02:07:35.958Z,-2.65
2019-01-03T02:13:04.404Z,-2.74
2019-01-03T02:18:27.786Z,-2.63
2019-01-03T02:24:05.426Z,-2.79
2019-01-03T02:29:29.575Z,-2.94
2019-01-03T02:34:53.350Z,-2.90
2019-01-03T02:40:27.803Z,-3.03
2019-01-03T02:46:06.944Z,-3.06
2019-01-03T02:51:47.403Z,-3.12
2019-01-03T02:57:30.979Z,-3.32
2019-01-03T03:03:08.034Z,-3.32
2019-01-03T03:08:33.349Z,-3.35
2019-01-03T03:13:57.827Z,-3.44
2019-01-03T03:19:22.814Z,-3.48
2019-01-03T03:24:56.730Z,-3.35
2019-01-03T03:30:20.731Z,-3.36
2019-01-03T03:35:44.778Z,-3.51
2019-01-03T03:41:19.166Z,-3.65
2019-01-03T03:46:56.106Z,-3.63
2019-01-03T03:52:24.421Z,-3.74
2019-01-03T03:57:49.553Z,-3.83
2019-01-03T04:03:13.646Z,-3.95
2019-01-03T04:08:35.777Z,-3.95
2019-01-03T04:14:06.729Z,-3.82
2019-01-03T04:19:30.496Z,-3.93
2019-01-03T04:25:01.357Z,-4.05
2019-01-03T04:30:22.119Z,-4.20
2019-01-03T04:35:51.177Z,-4.35
2019-01-03T04:41:16.325Z,-4.42
2019-01-03T04:46:37.076Z,-4.46
2019-01-03T04:51:57.806Z,-4.55
2019-01-03T04:57:25.957Z,-4.60
2019-01-03T05:02:50.037Z,-4.74
2019-01-03T05:08:14.033Z,-4.76
2019-01-03T05:13:48.109Z,-4.79
2019-01-03T05:19:11.966Z,-4.93
2019-01-03T05:24:49.573Z,-5.02
2019-01-03T05:30:18.230Z,-5.10
2019-01-03T05:35:40.304Z,-5.10
2019-01-03T05:41:05.159Z,-4.86
2019-01-03T05:46:29.162Z,-4.84
2019-01-03T05:51:58.170Z,-5.05
2019-01-03T05:57:22.075Z,-5.35
2019-01-03T06:02:53.088Z,-5.49
2019-01-03T06:08:33.542Z,-5.55
2019-01-03T06:14:13.867Z,-5.79
2019-01-03T06:19:51.076Z,-5.96
2019-01-03T06:25:28.556Z,-6.15
2019-01-03T06:30:52.863Z,-6.20
2019-01-03T06:36:11.239Z,-6.24
2019-01-03T06:41:35.390Z,-6.34
2019-01-03T06:47:03.555Z,-6.47
2019-01-03T06:52:31.648Z,-6.50
2019-01-03T06:57:59.970Z,-6.68
2019-01-03T07:03:34.157Z,-6.67
2019-01-03T07:08:58.345Z,-6.78
2019-01-03T07:14:17.644Z,-6.84
2019-01-03T07:20:01.268Z,-6.91
2019-01-03T07:25:45.010Z,-6.94
2019-01-03T07:31:20.068Z,-7.08
2019-01-03T07:36:44.285Z,-7.04
2019-01-03T07:42:17.645Z,-7.14
2019-01-03T07:47:41.704Z,-7.12
2019-01-03T07:53:05.841Z,-7.17
2019-01-03T07:58:46.034Z,-7.18
2019-01-03T08:04:20.686Z,-7.13
2019-01-03T08:10:04.514Z,-7.17
2019-01-03T08:15:35.811Z,-7.07
2019-01-03T08:21:00.325Z,-7.08
2019-01-03T08:26:24.422Z,-7.01
2019-01-03T08:32:05.665Z,-6.92
2019-01-03T08:37:44.525Z,-6.87
2019-01-03T08:43:27.195Z,-6.81
2019-01-03T08:48:50.866Z,-6.61
2019-01-03T08:54:14.848Z,-6.60
2019-01-03T08:59:34.378Z,-6.33
2019-01-03T09:04:58.306Z,-6.12
2019-01-03T09:10:22.302Z,-5.81
2019-01-03T09:15:46.448Z,-5.57
2019-01-03T09:21:27.136Z,-5.48
2019-01-03T09:26:56.347Z,-5.20
2019-01-03T09:32:20.930Z,-4.92
2019-01-03T09:37:46.176Z,-4.30
2019-01-03T09:43:16.837Z,-3.17
2019-01-03T09:48:23.481Z,-2.67
2019-01-03T09:53:29.844Z,-2.29
2019-01-03T09:58:36.215Z,-1.88
2019-01-03T10:03:42.857Z,-1.83
2019-01-03T10:08:49.868Z,-1.34
2019-01-03T10:13:57.653Z,-1.24
2019-01-03T10:19:05.002Z,-0.79
2019-01-03T10:24:11.543Z,-0.53
2019-01-03T10:29:18.473Z,-0.58
2019-01-03T10:34:25.054Z,-0.25
2019-01-03T10:39:31.373Z,-0.16
2019-01-03T10:44:37.728Z,-0.16
2019-01-03T10:49:44.181Z,-0.13
2019-01-03T10:54:50.917Z,-0.06
2019-01-03T10:59:57.599Z,0.08
2019-01-03T11:05:03.992Z,0.04
2019-01-03T11:10:10.545Z,0.03
2019-01-03T11:15:17.065Z,0.11
2019-01-03T11:20:23.572Z,0.27
2019-01-03T11:25:29.824Z,0.33
2019-01-03T11:30:36.327Z,0.46
2019-01-03T11:35:42.967Z,0.21
2019-01-03T11:40:49.673Z,0.36
2019-01-03T11:45:56.008Z,0.45
2019-01-03T11:51:02.502Z,0.35
2019-01-03T11:56:08.986Z,0.33
2019-01-03T12:01:15.264Z,0.42
2019-01-03T12:06:22.107Z,0.52
2019-01-03T12:11:28.534Z,0.69
2019-01-03T12:16:35.527Z,0.64
2019-01-03T12:21:42.502Z,-0.18
2019-01-03T12:26:49.053Z,-0.22
2019-01-03T12:31:56.275Z,-0.28
2019-01-03T12:37:03.060Z,-0.21
2019-01-03T12:42:09.731Z,-0.28
2019-01-03T12:47:19.061Z,-0.21
2019-01-03T12:52:25.662Z,-0.27
2019-01-03T12:57:32.233Z,-0.37
2019-01-03T13:02:38.898Z,-0.53
2019-01-03T13:07:45.539Z,-0.35
2019-01-03T13:12:52.462Z,-0.23
2019-01-03T13:17:59.299Z,-0.32
2019-01-03T13:23:05.939Z,-0.25
2019-01-03T13:28:12.494Z,-0.22
2019-01-03T13:33:19.672Z,-0.36
2019-01-03T13:38:26.137Z,-0.26
2019-01-03T13:43:32.630Z,-0.27
2019-01-03T13:48:39.354Z,-0.16
2019-01-03T13:53:45.728Z,-0.17
2019-01-03T13:58:52.585Z,-0.31
2019-01-03T14:03:58.781Z,-0.30
2019-01-03T14:09:07.984Z,-0.33
2019-01-03T14:14:15.093Z,-0.42
2019-01-03T14:19:22.212Z,-0.45
2019-01-03T14:24:28.864Z,-0.41
2019-01-03T14:29:35.536Z,-0.41
2019-01-03T14:34:42.028Z,-0.59
2019-01-03T14:39:48.583Z,-0.73
2019-01-03T14:44:55.374Z,-0.66
2019-01-03T14:50:02.300Z,-0.80
2019-01-03T14:55:09.433Z,-0.99
2019-01-03T15:00:16.394Z,-1.23
2019-01-03T15:05:24.803Z,-1.43
2019-01-03T15:10:31.071Z,-1.24
2019-01-03T15:15:37.435Z,-1.48
2019-01-03T15:20:43.815Z,-1.67
2019-01-03T15:25:50.151Z,-1.85
2019-01-03T15:30:58.078Z,-2.01
2019-01-03T15:36:06.389Z,-2.15
2019-01-03T15:41:12.967Z,-2.29
2019-01-03T15:46:19.484Z,-2.37
2019-01-03T15:51:26.169Z,-2.56
2019-01-03T15:56:32.425Z,-2.79
2019-01-03T16:01:38.635Z,-2.90
2019-01-03T16:06:45.851Z,-3.10
2019-01-03T16:11:52.161Z,-3.17
2019-01-03T16:16:58.468Z,-3.25
2019-01-03T16:22:05.192Z,-3.41
2019-01-03T16:27:12.006Z,-3.09
2019-01-03T16:32:18.179Z,-3.03
2019-01-03T16:37:24.606Z,-2.92
2019-01-03T16:42:47.795Z,-2.96
2019-01-03T16:47:53.952Z,-3.01
2019-01-03T16:53:00.107Z,-2.95
2019-01-03T16:58:10.003Z,-2.93
2019-01-03T17:03:17.339Z,-2.86
2019-01-03T17:08:26.518Z,-2.98
2019-01-03T17:13:32.764Z,-3.08
2019-01-03T17:18:39.179Z,-2.97
2019-01-03T17:23:45.755Z,-3.09
2019-01-03T17:28:52.204Z,-3.20
2019-01-03T17:33:58.538Z,-3.19
2019-01-03T17:39:06.710Z,-3.07
2019-01-03T17:44:13.031Z,-3.17
2019-01-03T17:49:19.383Z,-2.89
2019-01-03T17:54:25.957Z,-3.07
2019-01-03T17:59:32.483Z,-3.36
2019-01-03T18:04:39.179Z,-3.33
2019-01-03T18:09:45.555Z,-3.23
2019-01-03T18:14:52.312Z,-3.01
2019-01-03T18:19:58.754Z,-2.79
2019-01-03T18:25:05.597Z,-2.69
2019-01-03T18:30:13.059Z,-2.52
2019-01-03T18:35:19.504Z,-2.52
2019-01-03T18:40:26.884Z,-2.56
2019-01-03T18:45:33.491Z,-2.46
2019-01-03T18:50:39.851Z,-1.86
2019-01-03T18:55:46.318Z,-1.74
2019-01-03T19:00:54.258Z,-1.88
2019-01-03T19:06:00.765Z,-1.90
2019-01-03T19:11:07.296Z,-1.75
2019-01-03T19:16:13.940Z,-1.51
2019-01-03T19:21:20.662Z,-1.51
2019-01-03T19:26:27.663Z,-1.33
2019-01-03T19:31:34.478Z,-1.40
2019-01-03T19:36:41.159Z,-1.44
2019-01-03T19:41:51.184Z,-1.36
2019-01-03T19:46:57.599Z,-1.27
2019-01-03T19:52:03.924Z,-1.26
2019-01-03T19:57:10.506Z,-1.22
2019-01-03T20:02:17.635Z,-1.18
2019-01-03T20:07:24.030Z,-1.21
2019-01-03T20:12:30.390Z,-1.22
2019-01-03T20:17:36.734Z,-1.19
2019-01-03T20:22:44.793Z,-1.25
2019-01-03T20:27:51.120Z,-1.16
2019-01-03T20:32:57.466Z,-1.08
2019-01-03T20:38:05.295Z,-1.20
2019-01-03T20:43:12.154Z,-1.06
2019-01-03T20:48:18.763Z,-1.05
2019-01-03T20:53:26.867Z,-0.96
2019-01-03T20:58:33.348Z,-0.94
2019-01-03T21:03:40.012Z,-1.00
2019-01-03T21:08:46.671Z,-0.97
2019-01-03T21:13:54.328Z,-1.00
2019-01-03T21:19:00.755Z,-1.00
2019-01-03T21:24:07.546Z,-0.97
2019-01-03T21:29:14.274Z,-0.94
2019-01-03T21:34:20.877Z,-0.90
2019-01-03T21:39:27.188Z,-1.03
2019-01-03T21:44:33.448Z,-1.12
2019-01-03T21:49:39.677Z,-1.07
2019-01-03T21:54:46.092Z,-1.19
2019-01-03T21:59:54.058Z,-1.21
2019-01-03T22:05:00.621Z,-1.30
2019-01-03T22:10:08.887Z,-1.31
2019-01-03T22:15:15.210Z,-1.38
2019-01-03T22:20:21.591Z,-1.24
2019-01-03T22:25:27.801Z,-1.27
2019-01-03T22:30:34.038Z,-1.07
2019-01-03T22:35:40.552Z,-1.09
2019-01-03T22:40:47.929Z,-1.09
2019-01-03T22:45:56.873Z,-1.13
2019-01-03T22:51:03.186Z,-1.05
2019-01-03T22:56:09.915Z,-1.03
2019-01-03T23:01:16.881Z,-1.01
2019-01-03T23:06:23.681Z,-1.02
2019-01-03T23:11:30.525Z,-0.95
2019-01-03T23:16:37.668Z,-1.00
2019-01-03T23:21:46.208Z,-0.95
2019-01-03T23:26:52.911Z,-0.97
2019-01-03T23:31:59.490Z,-0.94
2019-01-03T23:37:06.019Z,-0.90
2019-01-03T23:42:12.203Z,-1.01
2019-01-03T23:47:18.772Z,-1.09
2019-01-03T23:52:25.124Z,-1.08
2019-01-03T23:57:31.616Z,-1.02
